Terminal Aerodrome Forecast
Issued by NWS Cleveland, OH

Home | Current Version | Previous Version | Graphics & Text | Print | Product List | Glossary On
Versions: 1 2 3 4 5 6 7 8 9 10 11 12 13 14 15 16 17
678
FTUS41 KCLE 160531
TAFMFD
TAF
KMFD 160531Z 1606/1706 25007KT P6SM -SN BKN015 OVC025
      TEMPO 1608/1612 SCT015 OVC025
     FM161400 24010KT P6SM BKN025
     FM170100 25006KT P6SM SCT007 OVC010=

USA.gov is the U.S. government's official web portal to all federal, state and local government web resources and services.